sensor_id;sensor_type;location;lat;lon;timestamp;P1;durP1;ratioP1;P2;durP2;ratioP2
23567;SDS011;11962;50.838;4.430;2023-11-22T00:00:09;27.90;;;17.33;;
23567;SDS011;11962;50.838;4.430;2023-11-22T00:02:37;31.30;;;19.37;;
23567;SDS011;11962;50.838;4.430;2023-11-22T00:05:03;33.70;;;18.05;;
23567;SDS011;11962;50.838;4.430;2023-11-22T00:07:30;29.98;;;18.15;;
23567;SDS011;11962;50.838;4.430;2023-11-22T00:09:56;26.40;;;17.90;;
23567;SDS011;11962;50.838;4.430;2023-11-22T00:12:23;28.13;;;17.88;;
23567;SDS011;11962;50.838;4.430;2023-11-22T00:14:50;27.83;;;17.20;;
23567;SDS011;11962;50.838;4.430;2023-11-22T00:17:16;26.23;;;17.17;;
23567;SDS011;11962;50.838;4.430;2023-11-22T00:19:42;25.63;;;17.67;;
23567;SDS011;11962;50.838;4.430;2023-11-22T00:22:09;30.05;;;17.60;;
23567;SDS011;11962;50.838;4.430;2023-11-22T00:24:40;27.48;;;17.88;;
23567;SDS011;11962;50.838;4.430;2023-11-22T00:27:06;27.27;;;17.55;;
23567;SDS011;11962;50.838;4.430;2023-11-22T00:29:33;30.50;;;17.95;;
23567;SDS011;11962;50.838;4.430;2023-11-22T00:31:59;28.88;;;17.80;;
23567;SDS011;11962;50.838;4.430;2023-11-22T00:34:25;28.00;;;17.77;;
23567;SDS011;11962;50.838;4.430;2023-11-22T00:36:51;31.42;;;19.23;;
23567;SDS011;11962;50.838;4.430;2023-11-22T00:39:17;31.33;;;18.10;;
23567;SDS011;11962;50.838;4.430;2023-11-22T00:41:43;29.92;;;18.13;;
23567;SDS011;11962;50.838;4.430;2023-11-22T00:44:10;32.40;;;19.30;;
23567;SDS011;11962;50.838;4.430;2023-11-22T00:46:36;30.38;;;18.52;;
23567;SDS011;11962;50.838;4.430;2023-11-22T00:49:05;28.45;;;17.80;;
23567;SDS011;11962;50.838;4.430;2023-11-22T00:51:31;24.90;;;17.58;;
23567;SDS011;11962;50.838;4.430;2023-11-22T00:54:00;29.23;;;18.05;;
23567;SDS011;11962;50.838;4.430;2023-11-22T00:58:52;28.27;;;18.23;;
23567;SDS011;11962;50.838;4.430;2023-11-22T01:01:20;29.75;;;18.65;;
23567;SDS011;11962;50.838;4.430;2023-11-22T01:03:46;31.65;;;19.38;;
23567;SDS011;11962;50.838;4.430;2023-11-22T01:06:12;27.27;;;17.98;;
23567;SDS011;11962;50.838;4.430;2023-11-22T01:08:38;28.13;;;18.75;;
23567;SDS011;11962;50.838;4.430;2023-11-22T01:11:04;28.50;;;18.15;;
23567;SDS011;11962;50.838;4.430;2023-11-22T01:13:31;28.83;;;18.52;;
23567;SDS011;11962;50.838;4.430;2023-11-22T01:16:06;28.80;;;17.98;;
23567;SDS011;11962;50.838;4.430;2023-11-22T01:18:32;28.30;;;17.67;;
23567;SDS011;11962;50.838;4.430;2023-11-22T01:20:58;26.65;;;16.98;;
23567;SDS011;11962;50.838;4.430;2023-11-22T01:23:24;35.35;;;18.58;;
23567;SDS011;11962;50.838;4.430;2023-11-22T01:25:50;29.55;;;18.30;;
23567;SDS011;11962;50.838;4.430;2023-11-22T01:28:16;27.70;;;18.55;;
23567;SDS011;11962;50.838;4.430;2023-11-22T01:30:44;28.13;;;17.88;;
23567;SDS011;11962;50.838;4.430;2023-11-22T01:33:14;30.13;;;18.92;;
23567;SDS011;11962;50.838;4.430;2023-11-22T01:35:40;28.05;;;18.58;;
23567;SDS011;11962;50.838;4.430;2023-11-22T01:38:06;35.60;;;18.60;;
23567;SDS011;11962;50.838;4.430;2023-11-22T01:40:33;29.88;;;19.42;;
23567;SDS011;11962;50.838;4.430;2023-11-22T01:42:59;36.33;;;19.63;;
23567;SDS011;11962;50.838;4.430;2023-11-22T01:45:27;30.42;;;19.02;;
23567;SDS011;11962;50.838;4.430;2023-11-22T01:47:53;33.13;;;18.70;;
23567;SDS011;11962;50.838;4.430;2023-11-22T01:50:19;32.50;;;18.95;;
23567;SDS011;11962;50.838;4.430;2023-11-22T01:52:45;31.40;;;18.45;;
23567;SDS011;11962;50.838;4.430;2023-11-22T01:55:12;29.48;;;19.20;;
23567;SDS011;11962;50.838;4.430;2023-11-22T01:57:39;30.05;;;18.50;;
23567;SDS011;11962;50.838;4.430;2023-11-22T02:00:05;30.35;;;18.10;;
23567;SDS011;11962;50.838;4.430;2023-11-22T02:02:39;33.67;;;19.67;;
23567;SDS011;11962;50.838;4.430;2023-11-22T02:05:05;34.38;;;19.80;;
23567;SDS011;11962;50.838;4.430;2023-11-22T02:07:31;31.05;;;19.50;;
23567;SDS011;11962;50.838;4.430;2023-11-22T02:09:57;30.67;;;19.10;;
23567;SDS011;11962;50.838;4.430;2023-11-22T02:12:23;30.85;;;19.27;;
23567;SDS011;11962;50.838;4.430;2023-11-22T02:14:49;35.67;;;19.70;;
23567;SDS011;11962;50.838;4.430;2023-11-22T02:17:15;30.88;;;20.02;;
23567;SDS011;11962;50.838;4.430;2023-11-22T02:19:44;31.42;;;19.88;;
23567;SDS011;11962;50.838;4.430;2023-11-22T02:22:09;31.02;;;19.48;;
23567;SDS011;11962;50.838;4.430;2023-11-22T02:24:36;32.72;;;20.40;;
23567;SDS011;11962;50.838;4.430;2023-11-22T02:27:01;33.05;;;19.48;;
23567;SDS011;11962;50.838;4.430;2023-11-22T02:29:28;33.13;;;20.30;;
23567;SDS011;11962;50.838;4.430;2023-11-22T02:31:54;32.35;;;19.77;;
23567;SDS011;11962;50.838;4.430;2023-11-22T02:34:20;33.78;;;19.13;;
23567;SDS011;11962;50.838;4.430;2023-11-22T02:36:46;35.00;;;19.92;;
23567;SDS011;11962;50.838;4.430;2023-11-22T02:39:12;30.75;;;19.05;;
23567;SDS011;11962;50.838;4.430;2023-11-22T02:41:39;37.88;;;20.35;;
23567;SDS011;11962;50.838;4.430;2023-11-22T02:44:05;36.47;;;20.73;;
23567;SDS011;11962;50.838;4.430;2023-11-22T02:48:59;33.30;;;18.42;;
23567;SDS011;11962;50.838;4.430;2023-11-22T02:51:25;30.52;;;19.33;;
23567;SDS011;11962;50.838;4.430;2023-11-22T02:53:51;31.30;;;20.00;;
23567;SDS011;11962;50.838;4.430;2023-11-22T02:56:18;33.15;;;19.73;;
23567;SDS011;11962;50.838;4.430;2023-11-22T02:58:44;31.65;;;19.48;;
23567;SDS011;11962;50.838;4.430;2023-11-22T03:01:10;30.92;;;18.63;;
23567;SDS011;11962;50.838;4.430;2023-11-22T03:03:36;33.90;;;18.58;;
23567;SDS011;11962;50.838;4.430;2023-11-22T03:06:02;28.73;;;18.77;;
23567;SDS011;11962;50.838;4.430;2023-11-22T03:08:28;33.75;;;20.45;;
23567;SDS011;11962;50.838;4.430;2023-11-22T03:10:54;34.70;;;20.08;;
23567;SDS011;11962;50.838;4.430;2023-11-22T03:13:19;31.30;;;19.90;;
23567;SDS011;11962;50.838;4.430;2023-11-22T03:15:45;30.75;;;19.88;;
23567;SDS011;11962;50.838;4.430;2023-11-22T03:18:11;30.40;;;18.65;;
23567;SDS011;11962;50.838;4.430;2023-11-22T03:20:37;37.55;;;20.63;;
23567;SDS011;11962;50.838;4.430;2023-11-22T03:23:03;33.00;;;19.63;;
23567;SDS011;11962;50.838;4.430;2023-11-22T03:25:29;30.15;;;19.55;;
23567;SDS011;11962;50.838;4.430;2023-11-22T03:27:56;29.17;;;19.20;;
23567;SDS011;11962;50.838;4.430;2023-11-22T03:30:21;32.95;;;19.73;;
23567;SDS011;11962;50.838;4.430;2023-11-22T03:32:47;30.33;;;19.10;;
23567;SDS011;11962;50.838;4.430;2023-11-22T03:35:14;30.52;;;19.13;;
23567;SDS011;11962;50.838;4.430;2023-11-22T03:37:41;28.70;;;19.00;;
23567;SDS011;11962;50.838;4.430;2023-11-22T03:40:07;30.33;;;19.50;;
23567;SDS011;11962;50.838;4.430;2023-11-22T03:42:36;32.72;;;19.38;;
23567;SDS011;11962;50.838;4.430;2023-11-22T03:45:02;28.45;;;18.60;;
23567;SDS011;11962;50.838;4.430;2023-11-22T03:47:29;28.42;;;18.45;;
23567;SDS011;11962;50.838;4.430;2023-11-22T03:49:56;33.03;;;18.92;;
23567;SDS011;11962;50.838;4.430;2023-11-22T03:52:22;32.95;;;19.30;;
23567;SDS011;11962;50.838;4.430;2023-11-22T03:54:47;28.73;;;18.33;;
23567;SDS011;11962;50.838;4.430;2023-11-22T03:57:13;28.13;;;17.52;;
23567;SDS011;11962;50.838;4.430;2023-11-22T03:59:40;28.13;;;18.88;;
23567;SDS011;11962;50.838;4.430;2023-11-22T04:02:07;30.45;;;18.23;;
23567;SDS011;11962;50.838;4.430;2023-11-22T04:04:32;29.90;;;18.15;;
23567;SDS011;11962;50.838;4.430;2023-11-22T04:06:58;28.13;;;18.23;;
23567;SDS011;11962;50.838;4.430;2023-11-22T04:09:24;27.92;;;18.38;;
23567;SDS011;11962;50.838;4.430;2023-11-22T04:11:50;26.25;;;17.48;;
23567;SDS011;11962;50.838;4.430;2023-11-22T04:14:15;29.08;;;18.42;;
23567;SDS011;11962;50.838;4.430;2023-11-22T04:16:41;27.23;;;17.85;;
23567;SDS011;11962;50.838;4.430;2023-11-22T04:19:07;28.83;;;18.02;;
23567;SDS011;11962;50.838;4.430;2023-11-22T04:21:32;28.70;;;18.30;;
23567;SDS011;11962;50.838;4.430;2023-11-22T04:23:58;30.52;;;17.92;;
23567;SDS011;11962;50.838;4.430;2023-11-22T04:26:24;28.35;;;17.73;;
23567;SDS011;11962;50.838;4.430;2023-11-22T04:28:50;27.95;;;18.30;;
23567;SDS011;11962;50.838;4.430;2023-11-22T04:31:15;37.45;;;18.65;;
23567;SDS011;11962;50.838;4.430;2023-11-22T04:33:41;28.98;;;18.48;;
23567;SDS011;11962;50.838;4.430;2023-11-22T04:36:07;27.40;;;18.45;;
23567;SDS011;11962;50.838;4.430;2023-11-22T04:38:33;30.17;;;18.83;;
23567;SDS011;11962;50.838;4.430;2023-11-22T04:40:59;31.60;;;19.35;;
23567;SDS011;11962;50.838;4.430;2023-11-22T04:43:25;37.28;;;19.27;;
23567;SDS011;11962;50.838;4.430;2023-11-22T04:45:51;30.95;;;19.35;;
23567;SDS011;11962;50.838;4.430;2023-11-22T04:48:16;29.75;;;18.52;;
23567;SDS011;11962;50.838;4.430;2023-11-22T04:50:42;29.10;;;18.83;;
23567;SDS011;11962;50.838;4.430;2023-11-22T04:53:08;33.17;;;20.15;;
23567;SDS011;11962;50.838;4.430;2023-11-22T04:55:35;32.83;;;19.42;;
23567;SDS011;11962;50.838;4.430;2023-11-22T04:58:01;35.75;;;20.42;;
23567;SDS011;11962;50.838;4.430;2023-11-22T05:00:27;32.42;;;18.88;;
23567;SDS011;11962;50.838;4.430;2023-11-22T05:02:52;33.35;;;19.60;;
23567;SDS011;11962;50.838;4.430;2023-11-22T05:05:19;33.38;;;18.83;;
23567;SDS011;11962;50.838;4.430;2023-11-22T05:07:46;29.02;;;17.65;;
23567;SDS011;11962;50.838;4.430;2023-11-22T05:10:12;30.08;;;17.92;;
23567;SDS011;11962;50.838;4.430;2023-11-22T05:12:39;35.00;;;19.70;;
23567;SDS011;11962;50.838;4.430;2023-11-22T05:15:05;29.88;;;18.77;;
23567;SDS011;11962;50.838;4.430;2023-11-22T05:17:32;31.23;;;18.15;;
23567;SDS011;11962;50.838;4.430;2023-11-22T05:19:58;31.95;;;19.10;;
23567;SDS011;11962;50.838;4.430;2023-11-22T05:22:24;37.25;;;19.27;;
23567;SDS011;11962;50.838;4.430;2023-11-22T05:24:50;35.85;;;19.65;;
23567;SDS011;11962;50.838;4.430;2023-11-22T05:27:15;41.78;;;20.17;;
23567;SDS011;11962;50.838;4.430;2023-11-22T05:29:42;29.52;;;18.38;;
23567;SDS011;11962;50.838;4.430;2023-11-22T05:32:08;32.83;;;19.15;;
23567;SDS011;11962;50.838;4.430;2023-11-22T05:34:34;31.50;;;19.45;;
23567;SDS011;11962;50.838;4.430;2023-11-22T05:37:00;37.35;;;19.60;;
23567;SDS011;11962;50.838;4.430;2023-11-22T05:39:26;35.60;;;19.13;;
23567;SDS011;11962;50.838;4.430;2023-11-22T05:41:52;34.70;;;20.20;;
23567;SDS011;11962;50.838;4.430;2023-11-22T05:44:18;32.80;;;19.25;;
23567;SDS011;11962;50.838;4.430;2023-11-22T05:46:44;34.13;;;20.85;;
23567;SDS011;11962;50.838;4.430;2023-11-22T05:49:10;35.35;;;19.67;;
23567;SDS011;11962;50.838;4.430;2023-11-22T05:51:36;38.70;;;19.55;;
23567;SDS011;11962;50.838;4.430;2023-11-22T05:54:05;32.25;;;20.02;;
23567;SDS011;11962;50.838;4.430;2023-11-22T05:56:31;35.80;;;20.90;;
23567;SDS011;11962;50.838;4.430;2023-11-22T05:58:57;38.75;;;19.55;;
23567;SDS011;11962;50.838;4.430;2023-11-22T06:01:24;35.08;;;20.48;;
23567;SDS011;11962;50.838;4.430;2023-11-22T06:03:51;36.45;;;20.35;;
23567;SDS011;11962;50.838;4.430;2023-11-22T06:06:18;33.97;;;20.42;;
23567;SDS011;11962;50.838;4.430;2023-11-22T06:08:46;36.95;;;21.58;;
23567;SDS011;11962;50.838;4.430;2023-11-22T06:11:12;33.92;;;19.90;;
23567;SDS011;11962;50.838;4.430;2023-11-22T06:13:40;35.47;;;20.95;;
23567;SDS011;11962;50.838;4.430;2023-11-22T06:16:06;36.17;;;21.17;;
23567;SDS011;11962;50.838;4.430;2023-11-22T06:18:32;35.20;;;20.52;;
23567;SDS011;11962;50.838;4.430;2023-11-22T06:20:59;36.38;;;20.65;;
23567;SDS011;11962;50.838;4.430;2023-11-22T06:23:25;35.72;;;20.70;;
23567;SDS011;11962;50.838;4.430;2023-11-22T06:25:50;35.03;;;21.45;;
23567;SDS011;11962;50.838;4.430;2023-11-22T06:28:16;35.10;;;20.33;;
23567;SDS011;11962;50.838;4.430;2023-11-22T06:30:43;38.15;;;21.20;;
23567;SDS011;11962;50.838;4.430;2023-11-22T06:33:08;39.30;;;20.55;;
23567;SDS011;11962;50.838;4.430;2023-11-22T06:35:35;38.17;;;20.65;;
23567;SDS011;11962;50.838;4.430;2023-11-22T06:38:01;39.17;;;21.75;;
23567;SDS011;11962;50.838;4.430;2023-11-22T06:40:27;36.20;;;20.38;;
23567;SDS011;11962;50.838;4.430;2023-11-22T06:42:54;37.95;;;21.63;;
23567;SDS011;11962;50.838;4.430;2023-11-22T06:45:21;37.97;;;21.48;;
23567;SDS011;11962;50.838;4.430;2023-11-22T06:47:47;42.92;;;23.13;;
23567;SDS011;11962;50.838;4.430;2023-11-22T06:50:15;35.05;;;21.25;;
23567;SDS011;11962;50.838;4.430;2023-11-22T06:52:41;34.47;;;20.35;;
23567;SDS011;11962;50.838;4.430;2023-11-22T06:55:07;35.30;;;21.27;;
23567;SDS011;11962;50.838;4.430;2023-11-22T06:57:37;32.70;;;19.42;;
23567;SDS011;11962;50.838;4.430;2023-11-22T07:00:04;39.45;;;20.67;;
23567;SDS011;11962;50.838;4.430;2023-11-22T07:02:34;36.00;;;19.73;;
23567;SDS011;11962;50.838;4.430;2023-11-22T07:05:01;34.88;;;20.63;;
23567;SDS011;11962;50.838;4.430;2023-11-22T07:07:34;31.55;;;19.10;;
23567;SDS011;11962;50.838;4.430;2023-11-22T07:10:03;38.83;;;20.58;;
23567;SDS011;11962;50.838;4.430;2023-11-22T07:12:30;43.03;;;21.58;;
23567;SDS011;11962;50.838;4.430;2023-11-22T07:15:03;37.72;;;21.33;;
23567;SDS011;11962;50.838;4.430;2023-11-22T07:17:30;31.90;;;19.90;;
23567;SDS011;11962;50.838;4.430;2023-11-22T07:19:58;37.53;;;20.20;;
23567;SDS011;11962;50.838;4.430;2023-11-22T07:22:25;31.38;;;19.35;;
23567;SDS011;11962;50.838;4.430;2023-11-22T07:24:51;30.65;;;18.92;;
23567;SDS011;11962;50.838;4.430;2023-11-22T07:27:19;31.13;;;18.60;;
23567;SDS011;11962;50.838;4.430;2023-11-22T07:29:45;32.25;;;18.90;;
23567;SDS011;11962;50.838;4.430;2023-11-22T07:32:11;29.30;;;18.17;;
23567;SDS011;11962;50.838;4.430;2023-11-22T07:34:38;30.08;;;18.65;;
23567;SDS011;11962;50.838;4.430;2023-11-22T07:37:05;30.63;;;18.55;;
23567;SDS011;11962;50.838;4.430;2023-11-22T07:39:35;33.75;;;18.98;;
23567;SDS011;11962;50.838;4.430;2023-11-22T07:42:04;34.63;;;20.05;;
23567;SDS011;11962;50.838;4.430;2023-11-22T07:44:34;31.58;;;18.73;;
23567;SDS011;11962;50.838;4.430;2023-11-22T07:49:31;32.75;;;17.60;;
23567;SDS011;11962;50.838;4.430;2023-11-22T07:51:56;28.35;;;17.42;;
23567;SDS011;11962;50.838;4.430;2023-11-22T07:54:22;34.22;;;18.67;;
23567;SDS011;11962;50.838;4.430;2023-11-22T07:56:51;30.23;;;18.08;;
23567;SDS011;11962;50.838;4.430;2023-11-22T07:59:20;29.70;;;18.15;;
23567;SDS011;11962;50.838;4.430;2023-11-22T08:01:46;31.77;;;17.83;;
23567;SDS011;11962;50.838;4.430;2023-11-22T08:04:13;27.85;;;17.23;;
23567;SDS011;11962;50.838;4.430;2023-11-22T08:06:40;28.20;;;17.50;;
23567;SDS011;11962;50.838;4.430;2023-11-22T08:09:06;31.33;;;17.80;;
23567;SDS011;11962;50.838;4.430;2023-11-22T08:11:33;32.40;;;18.40;;
23567;SDS011;11962;50.838;4.430;2023-11-22T08:14:00;26.38;;;16.83;;
23567;SDS011;11962;50.838;4.430;2023-11-22T08:16:26;29.35;;;17.77;;
23567;SDS011;11962;50.838;4.430;2023-11-22T08:18:52;30.80;;;18.42;;
23567;SDS011;11962;50.838;4.430;2023-11-22T08:21:18;32.22;;;18.38;;
23567;SDS011;11962;50.838;4.430;2023-11-22T08:23:47;31.05;;;18.70;;
23567;SDS011;11962;50.838;4.430;2023-11-22T08:26:13;33.83;;;18.88;;
23567;SDS011;11962;50.838;4.430;2023-11-22T08:28:39;34.28;;;18.55;;
23567;SDS011;11962;50.838;4.430;2023-11-22T08:31:05;29.77;;;17.77;;
23567;SDS011;11962;50.838;4.430;2023-11-22T08:33:37;31.48;;;17.42;;
23567;SDS011;11962;50.838;4.430;2023-11-22T08:36:04;30.35;;;17.90;;
23567;SDS011;11962;50.838;4.430;2023-11-22T08:38:31;28.83;;;16.80;;
23567;SDS011;11962;50.838;4.430;2023-11-22T08:43:26;27.35;;;16.67;;
23567;SDS011;11962;50.838;4.430;2023-11-22T08:45:52;30.38;;;17.00;;
23567;SDS011;11962;50.838;4.430;2023-11-22T08:48:18;27.15;;;16.63;;
23567;SDS011;11962;50.838;4.430;2023-11-22T08:50:45;27.77;;;16.48;;
23567;SDS011;11962;50.838;4.430;2023-11-22T08:53:12;26.65;;;16.15;;
23567;SDS011;11962;50.838;4.430;2023-11-22T08:55:38;26.75;;;16.77;;
23567;SDS011;11962;50.838;4.430;2023-11-22T08:58:04;30.33;;;16.52;;
23567;SDS011;11962;50.838;4.430;2023-11-22T09:00:30;25.85;;;16.42;;
23567;SDS011;11962;50.838;4.430;2023-11-22T09:02:57;27.98;;;16.70;;
23567;SDS011;11962;50.838;4.430;2023-11-22T09:05:23;27.48;;;16.17;;
23567;SDS011;11962;50.838;4.430;2023-11-22T09:07:49;30.00;;;17.55;;
23567;SDS011;11962;50.838;4.430;2023-11-22T09:10:16;28.50;;;17.33;;
23567;SDS011;11962;50.838;4.430;2023-11-22T09:12:43;25.50;;;16.05;;
23567;SDS011;11962;50.838;4.430;2023-11-22T09:15:12;27.00;;;16.40;;
23567;SDS011;11962;50.838;4.430;2023-11-22T09:17:41;25.15;;;15.93;;
23567;SDS011;11962;50.838;4.430;2023-11-22T09:20:13;23.85;;;15.55;;
23567;SDS011;11962;50.838;4.430;2023-11-22T09:22:43;24.38;;;16.05;;
23567;SDS011;11962;50.838;4.430;2023-11-22T09:25:13;26.48;;;17.02;;
23567;SDS011;11962;50.838;4.430;2023-11-22T09:30:07;27.00;;;15.88;;
23567;SDS011;11962;50.838;4.430;2023-11-22T09:32:43;26.98;;;16.58;;
23567;SDS011;11962;50.838;4.430;2023-11-22T09:35:14;30.30;;;16.23;;
23567;SDS011;11962;50.838;4.430;2023-11-22T09:37:40;27.65;;;16.33;;
23567;SDS011;11962;50.838;4.430;2023-11-22T09:40:10;26.20;;;16.20;;
23567;SDS011;11962;50.838;4.430;2023-11-22T09:42:37;27.35;;;16.77;;
23567;SDS011;11962;50.838;4.430;2023-11-22T09:45:03;26.17;;;16.02;;
23567;SDS011;11962;50.838;4.430;2023-11-22T09:47:31;23.70;;;15.43;;
23567;SDS011;11962;50.838;4.430;2023-11-22T09:49:59;25.65;;;15.80;;
23567;SDS011;11962;50.838;4.430;2023-11-22T09:52:31;22.45;;;14.95;;
23567;SDS011;11962;50.838;4.430;2023-11-22T09:55:02;24.88;;;15.43;;
23567;SDS011;11962;50.838;4.430;2023-11-22T09:57:28;24.83;;;14.68;;
23567;SDS011;11962;50.838;4.430;2023-11-22T09:59:58;20.33;;;14.35;;
23567;SDS011;11962;50.838;4.430;2023-11-22T10:02:25;24.08;;;15.02;;
23567;SDS011;11962;50.838;4.430;2023-11-22T10:04:53;22.90;;;15.70;;
23567;SDS011;11962;50.838;4.430;2023-11-22T10:07:19;23.08;;;14.65;;
23567;SDS011;11962;50.838;4.430;2023-11-22T10:09:45;23.88;;;15.55;;
23567;SDS011;11962;50.838;4.430;2023-11-22T10:12:18;27.35;;;16.52;;
23567;SDS011;11962;50.838;4.430;2023-11-22T10:14:46;23.20;;;15.15;;
23567;SDS011;11962;50.838;4.430;2023-11-22T10:17:12;24.92;;;15.82;;
23567;SDS011;11962;50.838;4.430;2023-11-22T10:19:41;25.45;;;16.85;;
23567;SDS011;11962;50.838;4.430;2023-11-22T10:22:07;24.95;;;16.38;;
23567;SDS011;11962;50.838;4.430;2023-11-22T10:24:34;26.67;;;16.23;;
23567;SDS011;11962;50.838;4.430;2023-11-22T10:27:03;23.20;;;15.88;;
23567;SDS011;11962;50.838;4.430;2023-11-22T10:29:29;24.42;;;15.45;;
23567;SDS011;11962;50.838;4.430;2023-11-22T10:31:55;23.42;;;15.50;;
23567;SDS011;11962;50.838;4.430;2023-11-22T10:34:22;23.15;;;15.85;;
23567;SDS011;11962;50.838;4.430;2023-11-22T10:36:49;25.88;;;15.80;;
23567;SDS011;11962;50.838;4.430;2023-11-22T10:39:18;25.10;;;16.08;;
23567;SDS011;11962;50.838;4.430;2023-11-22T10:41:45;23.27;;;15.65;;
23567;SDS011;11962;50.838;4.430;2023-11-22T10:44:11;23.83;;;15.52;;
23567;SDS011;11962;50.838;4.430;2023-11-22T10:46:38;25.95;;;16.42;;
23567;SDS011;11962;50.838;4.430;2023-11-22T10:49:05;27.30;;;17.23;;
23567;SDS011;11962;50.838;4.430;2023-11-22T10:51:31;25.45;;;16.00;;
23567;SDS011;11962;50.838;4.430;2023-11-22T10:54:01;25.20;;;17.20;;
23567;SDS011;11962;50.838;4.430;2023-11-22T10:56:31;26.95;;;16.45;;
23567;SDS011;11962;50.838;4.430;2023-11-22T10:59:05;26.67;;;16.35;;
23567;SDS011;11962;50.838;4.430;2023-11-22T11:01:49;24.48;;;15.05;;
23567;SDS011;11962;50.838;4.430;2023-11-22T11:04:24;23.55;;;15.60;;
23567;SDS011;11962;50.838;4.430;2023-11-22T11:06:58;25.75;;;15.85;;
23567;SDS011;11962;50.838;4.430;2023-11-22T11:09:26;23.70;;;15.35;;
23567;SDS011;11962;50.838;4.430;2023-11-22T11:11:57;25.23;;;15.82;;
23567;SDS011;11962;50.838;4.430;2023-11-22T11:14:23;22.90;;;15.10;;
23567;SDS011;11962;50.838;4.430;2023-11-22T11:16:50;23.25;;;15.02;;
23567;SDS011;11962;50.838;4.430;2023-11-22T11:19:19;20.67;;;13.85;;
23567;SDS011;11962;50.838;4.430;2023-11-22T11:21:49;18.98;;;13.48;;
23567;SDS011;11962;50.838;4.430;2023-11-22T11:24:15;16.02;;;12.20;;
23567;SDS011;11962;50.838;4.430;2023-11-22T11:26:47;19.10;;;12.38;;
23567;SDS011;11962;50.838;4.430;2023-11-22T11:29:31;15.43;;;11.77;;
23567;SDS011;11962;50.838;4.430;2023-11-22T11:31:57;17.90;;;11.57;;
23567;SDS011;11962;50.838;4.430;2023-11-22T11:34:23;14.85;;;10.38;;
23567;SDS011;11962;50.838;4.430;2023-11-22T11:36:52;14.70;;;10.82;;
23567;SDS011;11962;50.838;4.430;2023-11-22T11:39:25;16.15;;;11.57;;
23567;SDS011;11962;50.838;4.430;2023-11-22T11:42:11;17.55;;;11.05;;
23567;SDS011;11962;50.838;4.430;2023-11-22T11:44:50;19.42;;;12.52;;
23567;SDS011;11962;50.838;4.430;2023-11-22T11:47:36;16.33;;;10.73;;
23567;SDS011;11962;50.838;4.430;2023-11-22T11:50:02;15.07;;;10.90;;
23567;SDS011;11962;50.838;4.430;2023-11-22T11:52:29;17.08;;;12.23;;
23567;SDS011;11962;50.838;4.430;2023-11-22T11:54:56;13.90;;;10.43;;
23567;SDS011;11962;50.838;4.430;2023-11-22T11:57:22;16.70;;;11.35;;
23567;SDS011;11962;50.838;4.430;2023-11-22T11:59:50;13.77;;;10.85;;
23567;SDS011;11962;50.838;4.430;2023-11-22T12:02:16;15.95;;;11.52;;
23567;SDS011;11962;50.838;4.430;2023-11-22T12:04:44;13.82;;;10.63;;
23567;SDS011;11962;50.838;4.430;2023-11-22T12:07:13;16.58;;;11.23;;
23567;SDS011;11962;50.838;4.430;2023-11-22T12:09:39;18.48;;;11.55;;
23567;SDS011;11962;50.838;4.430;2023-11-22T12:12:05;17.42;;;11.35;;
23567;SDS011;11962;50.838;4.430;2023-11-22T12:14:31;16.27;;;11.73;;
23567;SDS011;11962;50.838;4.430;2023-11-22T12:16:58;15.07;;;10.98;;
23567;SDS011;11962;50.838;4.430;2023-11-22T12:19:25;17.58;;;11.05;;
23567;SDS011;11962;50.838;4.430;2023-11-22T12:21:56;18.85;;;11.57;;
23567;SDS011;11962;50.838;4.430;2023-11-22T12:24:23;16.92;;;12.27;;
23567;SDS011;11962;50.838;4.430;2023-11-22T12:26:49;16.45;;;12.00;;
23567;SDS011;11962;50.838;4.430;2023-11-22T12:29:16;15.98;;;11.98;;
23567;SDS011;11962;50.838;4.430;2023-11-22T12:31:45;20.45;;;11.73;;
23567;SDS011;11962;50.838;4.430;2023-11-22T12:34:20;16.75;;;12.23;;
23567;SDS011;11962;50.838;4.430;2023-11-22T12:36:48;22.67;;;12.02;;
23567;SDS011;11962;50.838;4.430;2023-11-22T12:39:14;18.73;;;11.80;;
23567;SDS011;11962;50.838;4.430;2023-11-22T12:41:44;18.08;;;12.43;;
23567;SDS011;11962;50.838;4.430;2023-11-22T12:44:11;16.83;;;11.70;;
23567;SDS011;11962;50.838;4.430;2023-11-22T12:46:50;19.52;;;11.77;;
23567;SDS011;11962;50.838;4.430;2023-11-22T12:49:24;15.90;;;11.27;;
23567;SDS011;11962;50.838;4.430;2023-11-22T12:51:55;16.75;;;11.02;;
23567;SDS011;11962;50.838;4.430;2023-11-22T12:54:23;18.10;;;12.10;;
23567;SDS011;11962;50.838;4.430;2023-11-22T12:56:50;17.67;;;11.95;;
23567;SDS011;11962;50.838;4.430;2023-11-22T12:59:16;18.48;;;11.38;;
23567;SDS011;11962;50.838;4.430;2023-11-22T13:01:43;18.55;;;11.60;;
23567;SDS011;11962;50.838;4.430;2023-11-22T13:04:09;16.05;;;11.15;;
23567;SDS011;11962;50.838;4.430;2023-11-22T13:06:35;19.17;;;11.45;;
23567;SDS011;11962;50.838;4.430;2023-11-22T13:09:01;20.02;;;11.93;;
23567;SDS011;11962;50.838;4.430;2023-11-22T13:11:28;18.42;;;11.75;;
23567;SDS011;11962;50.838;4.430;2023-11-22T13:13:54;20.02;;;12.35;;
23567;SDS011;11962;50.838;4.430;2023-11-22T13:16:19;18.17;;;12.13;;
23567;SDS011;11962;50.838;4.430;2023-11-22T13:18:45;20.60;;;12.88;;
23567;SDS011;11962;50.838;4.430;2023-11-22T13:21:13;18.58;;;12.43;;
23567;SDS011;11962;50.838;4.430;2023-11-22T13:23:39;19.42;;;12.18;;
23567;SDS011;11962;50.838;4.430;2023-11-22T13:26:04;24.45;;;13.45;;
23567;SDS011;11962;50.838;4.430;2023-11-22T13:28:31;19.90;;;13.13;;
23567;SDS011;11962;50.838;4.430;2023-11-22T13:30:56;22.67;;;13.75;;
23567;SDS011;11962;50.838;4.430;2023-11-22T13:33:22;23.40;;;14.00;;
23567;SDS011;11962;50.838;4.430;2023-11-22T13:35:48;24.25;;;13.90;;
23567;SDS011;11962;50.838;4.430;2023-11-22T13:38:13;23.88;;;14.20;;
23567;SDS011;11962;50.838;4.430;2023-11-22T13:40:41;23.17;;;13.90;;
23567;SDS011;11962;50.838;4.430;2023-11-22T13:43:10;25.08;;;14.70;;
23567;SDS011;11962;50.838;4.430;2023-11-22T13:45:38;25.48;;;15.82;;
23567;SDS011;11962;50.838;4.430;2023-11-22T13:48:06;24.65;;;16.08;;
23567;SDS011;11962;50.838;4.430;2023-11-22T13:50:34;26.52;;;15.13;;
23567;SDS011;11962;50.838;4.430;2023-11-22T13:53:01;22.20;;;14.50;;
23567;SDS011;11962;50.838;4.430;2023-11-22T13:55:29;23.40;;;15.27;;
23567;SDS011;11962;50.838;4.430;2023-11-22T13:57:56;21.00;;;14.73;;
23567;SDS011;11962;50.838;4.430;2023-11-22T14:00:24;25.08;;;15.43;;
23567;SDS011;11962;50.838;4.430;2023-11-22T14:02:53;22.83;;;14.98;;
23567;SDS011;11962;50.838;4.430;2023-11-22T14:05:24;22.83;;;14.73;;
23567;SDS011;11962;50.838;4.430;2023-11-22T14:07:51;21.65;;;14.05;;
23567;SDS011;11962;50.838;4.430;2023-11-22T14:10:18;21.48;;;14.02;;
23567;SDS011;11962;50.838;4.430;2023-11-22T14:12:44;21.85;;;13.70;;
23567;SDS011;11962;50.838;4.430;2023-11-22T14:15:11;21.10;;;14.02;;
23567;SDS011;11962;50.838;4.430;2023-11-22T14:17:37;19.55;;;14.00;;
23567;SDS011;11962;50.838;4.430;2023-11-22T14:20:06;20.27;;;13.90;;
23567;SDS011;11962;50.838;4.430;2023-11-22T14:25:00;21.45;;;12.07;;
23567;SDS011;11962;50.838;4.430;2023-11-22T14:27:27;18.92;;;12.05;;
23567;SDS011;11962;50.838;4.430;2023-11-22T14:29:54;20.23;;;12.43;;
23567;SDS011;11962;50.838;4.430;2023-11-22T14:32:20;19.92;;;12.68;;
23567;SDS011;11962;50.838;4.430;2023-11-22T14:34:46;18.05;;;12.40;;